createdAt,value
2023-02-16T00:02:24.410Z,101491.19
2023-02-16T00:07:17.211Z,101485.27
2023-02-16T00:12:36.970Z,101478.13
2023-02-16T00:17:29.748Z,101469.96
2023-02-16T00:22:22.520Z,101468.77
2023-02-16T00:27:18.625Z,101463.84
2023-02-16T00:32:13.629Z,101458.64
2023-02-16T00:37:12.081Z,101437.29
2023-02-16T00:42:24.210Z,101424.93
2023-02-16T00:47:22.285Z,101418.70
2023-02-16T00:52:38.384Z,101413.41
2023-02-16T00:57:35.278Z,101411.16
2023-02-16T01:02:28.390Z,101404.88
2023-02-16T01:07:39.254Z,101398.13
2023-02-16T01:12:32.394Z,101394.61
2023-02-16T01:17:25.933Z,101390.25
2023-02-16T01:22:21.635Z,101382.63
2023-02-16T01:27:15.060Z,101375.12
2023-02-16T01:32:13.724Z,101379.33
2023-02-16T01:37:06.617Z,101373.70
2023-02-16T01:42:12.651Z,101366.84
2023-02-16T01:47:25.986Z,101363.20
2023-02-16T01:52:28.588Z,101366.15
2023-02-16T01:57:45.634Z,101360.42
2023-02-16T02:02:44.206Z,101358.63
2023-02-16T02:07:54.182Z,101348.62
2023-02-16T02:13:29.175Z,101348.48
2023-02-16T02:18:22.426Z,101351.50
2023-02-16T02:23:53.807Z,101345.48
2023-02-16T02:29:24.182Z,101337.45
2023-02-16T02:34:24.071Z,101341.89
2023-02-16T02:39:46.554Z,101331.95
2023-02-16T02:45:13.011Z,101322.17
2023-02-16T02:50:39.261Z,101318.27
2023-02-16T02:55:55.419Z,101314.56
2023-02-16T03:00:51.865Z,101311.88
2023-02-16T03:05:52.262Z,101312.09
2023-02-16T03:11:09.068Z,101308.64
2023-02-16T03:16:06.709Z,101297.44
2023-02-16T03:21:17.497Z,101290.31
2023-02-16T03:26:29.411Z,101282.89
2023-02-16T03:31:29.603Z,101278.92
2023-02-16T03:36:28.366Z,101269.38
2023-02-16T03:41:21.194Z,101256.58
2023-02-16T03:46:14.537Z,101250.02
2023-02-16T03:51:07.375Z,101257.42
2023-02-16T03:56:00.173Z,101255.98
2023-02-16T04:00:54.285Z,101249.44
2023-02-16T04:05:49.163Z,101239.80
2023-02-16T04:10:42.058Z,101223.29
2023-02-16T04:15:34.980Z,101210.52
2023-02-16T04:20:32.973Z,101208.02
2023-02-16T04:25:26.460Z,101209.80
2023-02-16T04:30:25.798Z,101208.27
2023-02-16T04:35:19.319Z,101207.83
2023-02-16T04:40:14.151Z,101201.56
2023-02-16T04:45:07.441Z,101204.08
2023-02-16T04:50:00.208Z,101203.45
2023-02-16T04:54:53.096Z,101194.05
2023-02-16T04:59:46.512Z,101194.21
2023-02-16T05:04:39.573Z,101198.27
2023-02-16T05:09:32.400Z,101200.96
2023-02-16T05:14:43.217Z,101198.96
2023-02-16T05:19:36.149Z,101195.60
2023-02-16T05:24:28.943Z,101193.52
2023-02-16T05:29:21.772Z,101200.90
2023-02-16T05:34:15.040Z,101188.83
2023-02-16T05:39:07.799Z,101191.42
2023-02-16T05:44:04.591Z,101194.24
2023-02-16T05:48:57.386Z,101197.14
2023-02-16T05:53:50.361Z,101198.83
2023-02-16T05:58:43.147Z,101191.72
2023-02-16T06:03:37.025Z,101183.41
2023-02-16T06:08:30.659Z,101179.71
2023-02-16T06:13:25.364Z,101177.07
2023-02-16T06:18:18.400Z,101172.73
2023-02-16T06:23:13.568Z,101164.02
2023-02-16T06:28:06.596Z,101166.64
2023-02-16T06:32:59.383Z,101175.80
2023-02-16T06:37:52.267Z,101180.92
2023-02-16T06:42:45.275Z,101172.92
2023-02-16T06:47:38.824Z,101176.79
2023-02-16T06:52:31.607Z,101169.23
2023-02-16T06:57:24.427Z,101163.31
2023-02-16T07:02:17.252Z,101161.59
2023-02-16T07:07:10.539Z,101160.23
2023-02-16T07:12:03.316Z,101146.99
2023-02-16T07:16:59.164Z,101147.50
2023-02-16T07:21:52.135Z,101144.99
2023-02-16T07:26:44.960Z,101145.40
2023-02-16T07:31:37.817Z,101146.71
2023-02-16T07:36:30.687Z,101139.06
2023-02-16T07:41:23.576Z,101141.42
2023-02-16T07:46:16.589Z,101145.03
2023-02-16T07:51:09.422Z,101137.89
2023-02-16T07:56:02.228Z,101131.33
2023-02-16T08:01:07.515Z,101137.36
2023-02-16T08:06:04.535Z,101127.63
2023-02-16T08:10:57.285Z,101121.16
2023-02-16T08:15:50.049Z,101113.64
2023-02-16T08:21:02.337Z,101111.64
2023-02-16T08:25:59.236Z,101109.24
2023-02-16T08:30:53.355Z,101112.95
2023-02-16T08:35:46.168Z,101108.02
2023-02-16T08:40:38.920Z,101105.67
2023-02-16T08:45:31.922Z,101108.33
2023-02-16T08:50:24.929Z,101109.94
2023-02-16T08:55:18.373Z,101105.46
2023-02-16T09:00:29.372Z,101105.72
2023-02-16T09:05:22.569Z,101110.23
2023-02-16T09:10:15.361Z,101104.67
2023-02-16T09:15:08.704Z,101101.41
2023-02-16T09:20:02.289Z,101095.63
2023-02-16T09:24:55.059Z,101091.75
2023-02-16T09:29:47.878Z,101085.01
2023-02-16T09:34:40.669Z,101081.81
2023-02-16T09:39:33.848Z,101083.50
2023-02-16T09:45:09.866Z,101084.13
2023-02-16T09:50:14.682Z,101075.88
2023-02-16T09:55:17.332Z,101072.08
2023-02-16T10:00:37.560Z,101068.09
2023-02-16T10:05:42.559Z,101065.02
2023-02-16T10:10:51.076Z,101066.20
2023-02-16T10:15:46.150Z,101062.61
2023-02-16T10:20:44.017Z,101059.87
2023-02-16T10:25:54.921Z,101060.80
2023-02-16T10:30:58.370Z,101056.21
2023-02-16T10:35:58.324Z,101058.06
2023-02-16T10:41:05.774Z,101052.45
2023-02-16T10:46:02.075Z,101049.18
2023-02-16T10:51:02.388Z,101042.15
2023-02-16T10:55:58.160Z,101032.73
2023-02-16T11:00:58.001Z,101021.83
2023-02-16T11:05:53.432Z,101013.34
2023-02-16T11:10:52.540Z,101003.64
2023-02-16T11:15:54.638Z,100996.59
2023-02-16T11:20:47.824Z,100992.45
2023-02-16T11:25:40.759Z,100991.88
2023-02-16T11:30:36.700Z,100988.05
2023-02-16T11:35:32.987Z,100978.25
2023-02-16T11:40:34.923Z,100980.43
2023-02-16T11:45:36.609Z,100979.88
2023-02-16T11:50:35.270Z,100979.95
2023-02-16T11:55:33.688Z,100972.84
2023-02-16T12:00:28.202Z,100971.19
2023-02-16T12:05:50.263Z,100967.86
2023-02-16T12:11:28.193Z,100968.75
2023-02-16T12:16:30.914Z,100969.65
2023-02-16T12:21:46.464Z,100964.89
2023-02-16T12:26:42.708Z,100961.21
2023-02-16T12:31:54.355Z,100959.39
2023-02-16T12:36:59.197Z,100954.89
2023-02-16T12:42:00.591Z,100950.48
2023-02-16T12:47:12.930Z,100954.18
2023-02-16T12:52:18.569Z,100945.30
2023-02-16T12:57:17.476Z,100941.09
2023-02-16T13:02:40.492Z,100947.27
2023-02-16T13:07:39.941Z,100943.95
2023-02-16T13:12:40.623Z,100946.26
2023-02-16T13:17:39.648Z,100943.81
2023-02-16T13:22:38.431Z,100942.34
2023-02-16T13:27:46.814Z,100936.46
2023-02-16T13:33:19.967Z,100932.24
2023-02-16T13:38:43.711Z,100935.25
2023-02-16T13:43:42.429Z,100929.42
2023-02-16T13:48:47.225Z,100928.11
2023-02-16T13:53:43.260Z,100929.41
2023-02-16T13:58:36.576Z,100933.50
2023-02-16T14:03:38.809Z,100925.61
2023-02-16T14:08:32.805Z,100920.20
2023-02-16T14:13:33.545Z,100922.53
2023-02-16T14:18:48.138Z,100922.41
2023-02-16T14:23:41.708Z,100924.11
2023-02-16T14:28:35.458Z,100925.64
2023-02-16T14:33:51.390Z,100930.09
2023-02-16T14:38:47.289Z,100930.72
2023-02-16T14:43:53.973Z,100930.80
2023-02-16T14:49:26.011Z,100928.52
2023-02-16T14:54:37.888Z,100927.75
2023-02-16T14:59:33.440Z,100930.41
2023-02-16T15:04:31.577Z,100927.59
2023-02-16T15:09:32.032Z,100927.27
2023-02-16T15:14:26.956Z,100930.73
2023-02-16T15:19:28.945Z,100928.17
2023-02-16T15:24:25.413Z,100928.31
2023-02-16T15:29:18.789Z,100932.80
2023-02-16T15:34:28.480Z,100930.98
2023-02-16T15:39:45.252Z,100930.88
2023-02-16T15:44:42.058Z,100935.95
2023-02-16T15:49:38.992Z,100935.09
2023-02-16T15:54:35.648Z,100927.75
2023-02-16T15:59:55.316Z,100923.21
2023-02-16T16:04:55.043Z,100914.50
2023-02-16T16:09:48.843Z,100917.20
2023-02-16T16:14:49.165Z,100915.98
2023-02-16T16:19:42.046Z,100911.85
2023-02-16T16:24:39.141Z,100914.20
2023-02-16T16:29:42.369Z,100911.61
2023-02-16T16:34:42.273Z,100914.88
2023-02-16T16:39:40.505Z,100915.36
2023-02-16T16:44:39.169Z,100906.19
2023-02-16T16:49:31.985Z,100907.15
2023-02-16T16:54:36.590Z,100905.64
2023-02-16T16:59:29.381Z,100901.79
2023-02-16T17:04:22.285Z,100894.55
2023-02-16T17:09:16.865Z,100894.84
2023-02-16T17:14:19.001Z,100890.38
2023-02-16T17:19:16.681Z,100889.20
2023-02-16T17:24:10.344Z,100891.56
2023-02-16T17:29:03.681Z,100892.89
2023-02-16T17:33:56.463Z,100894.74
2023-02-16T17:38:49.949Z,100893.33
2023-02-16T17:43:42.718Z,100893.72
2023-02-16T17:48:35.479Z,100895.69
2023-02-16T17:53:29.562Z,100894.73
2023-02-16T17:58:24.246Z,100894.70
2023-02-16T18:03:18.195Z,100893.80
2023-02-16T18:08:12.531Z,100898.13
2023-02-16T18:13:07.137Z,100893.98
2023-02-16T18:18:01.031Z,100893.00
2023-02-16T18:22:54.774Z,100892.04
2023-02-16T18:27:47.816Z,100895.38
2023-02-16T18:32:41.923Z,100891.41
2023-02-16T18:37:38.345Z,100894.31
2023-02-16T18:42:31.118Z,100898.03
2023-02-16T18:47:26.424Z,100894.84
2023-02-16T18:52:20.155Z,100893.97
2023-02-16T18:57:13.039Z,100896.91
2023-02-16T19:02:05.939Z,100900.13
2023-02-16T19:06:59.365Z,100904.98
2023-02-16T19:11:54.061Z,100905.84
2023-02-16T19:16:47.753Z,100902.55
2023-02-16T19:21:41.244Z,100904.73
2023-02-16T19:26:34.097Z,100903.41
2023-02-16T19:31:30.077Z,100906.90
2023-02-16T19:36:23.933Z,100906.23
2023-02-16T19:41:23.803Z,100900.75
2023-02-16T19:46:17.201Z,100894.31
2023-02-16T19:51:11.375Z,100894.55
2023-02-16T19:56:09.368Z,100887.83
2023-02-16T20:01:10.923Z,100880.54
2023-02-16T20:06:20.879Z,100879.98
2023-02-16T20:11:15.765Z,100877.17
2023-02-16T20:16:10.218Z,100879.98
2023-02-16T20:21:08.992Z,100880.67
2023-02-16T20:26:05.376Z,100884.08
2023-02-16T20:30:58.401Z,100883.83
2023-02-16T20:35:51.217Z,100888.28
2023-02-16T20:40:44.995Z,100888.02
2023-02-16T20:45:41.379Z,100886.85
2023-02-16T20:50:34.306Z,100888.70
2023-02-16T20:55:27.203Z,100885.59
2023-02-16T21:00:21.835Z,100884.64
2023-02-16T21:05:15.025Z,100892.11
2023-02-16T21:10:10.271Z,100888.67
2023-02-16T21:15:03.355Z,100886.93
2023-02-16T21:19:56.225Z,100881.60
2023-02-16T21:24:49.070Z,100873.36
2023-02-16T21:29:41.869Z,100872.25
2023-02-16T21:34:34.706Z,100865.54
2023-02-16T21:39:41.430Z,100868.25
2023-02-16T21:44:34.411Z,100867.13
2023-02-16T21:49:27.175Z,100863.70
2023-02-16T21:54:41.444Z,100862.98
2023-02-16T21:59:35.102Z,100860.23
2023-02-16T22:04:28.697Z,100856.25
2023-02-16T22:09:24.488Z,100856.02
2023-02-16T22:14:17.908Z,100852.89
2023-02-16T22:19:14.171Z,100854.48
2023-02-16T22:24:07.740Z,100855.06
2023-02-16T22:29:01.051Z,100854.09
2023-02-16T22:34:03.099Z,100856.54
2023-02-16T22:38:56.465Z,100861.38
2023-02-16T22:43:49.488Z,100862.39
2023-02-16T22:48:43.152Z,100858.56
2023-02-16T22:53:38.166Z,100858.67
2023-02-16T22:58:31.134Z,100856.44
2023-02-16T23:03:24.210Z,100856.16
2023-02-16T23:08:17.586Z,100851.25
2023-02-16T23:13:10.899Z,100846.20
2023-02-16T23:18:03.946Z,100844.83
2023-02-16T23:22:57.674Z,100842.34
2023-02-16T23:27:53.767Z,100841.73
2023-02-16T23:32:47.843Z,100842.74
2023-02-16T23:37:40.876Z,100847.65
2023-02-16T23:42:33.767Z,100846.53
2023-02-16T23:47:26.606Z,100848.15
2023-02-16T23:52:19.950Z,100846.37
2023-02-16T23:57:13.049Z,100845.21
